Time;durP1;ratioP1;P1;durP2;ratioP2;P2;SDS_P1;SDS_P2;PMS_P1;PMS_P2;Temp;Humidity;BMP_temperature;BMP_pressure;BME280_temperature;BME280_humidity;BME280_pressure;Samples;Min_cycle;Max_cycle;Signal;HPM_P1;HPM_P2
2023/05/12 00:02:04;;;;;;;32.63;12.87;;;10.40;99.90;;;;;;5078303;28;20218;-83
2023/05/12 00:04:31;;;;;;;23.70;14.03;;;10.50;99.90;;;;;;5074054;28;20210;-82
2023/05/12 00:06:58;;;;;;;25.07;13.43;;;10.40;99.90;;;;;;5074958;28;20586;-84
2023/05/12 00:09:25;;;;;;;34.10;12.90;;;10.30;99.90;;;;;;5064127;28;20229;-82
2023/05/12 00:11:52;;;;;;;23.73;13.67;;;10.20;99.90;;;;;;5053036;28;20234;-85
2023/05/12 00:14:20;;;;;;;22.37;14.37;;;10.30;99.90;;;;;;5073008;28;20195;-84
2023/05/12 00:16:50;;;;;;;22.67;14.40;;;10.40;99.90;;;;;;5076238;28;20580;-85
2023/05/12 00:19:17;;;;;;;25.53;14.40;;;10.50;99.90;;;;;;5077261;28;20221;-85
2023/05/12 00:21:44;;;;;;;22.77;13.90;;;10.50;99.90;;;;;;5076423;28;20237;-83
2023/05/12 00:24:11;;;;;;;21.87;13.87;;;10.40;99.90;;;;;;5077620;28;20210;-83
2023/05/12 00:26:38;;;;;;;27.90;14.97;;;10.40;99.90;;;;;;5077418;28;20211;-82
2023/05/12 00:29:04;;;;;;;24.50;15.63;;;10.50;99.90;;;;;;5077755;28;20232;-84
2023/05/12 00:31:31;;;;;;;27.10;15.00;;;10.50;99.90;;;;;;5076711;28;20214;-84
2023/05/12 00:33:59;;;;;;;23.47;15.33;;;10.50;99.90;;;;;;5077574;28;20202;-82
2023/05/12 00:36:26;;;;;;;24.43;16.27;;;10.50;99.90;;;;;;5077240;28;20209;-82
2023/05/12 00:38:55;;;;;;;24.23;15.67;;;10.60;99.90;;;;;;5077651;28;20668;-84
2023/05/12 00:41:22;;;;;;;27.93;16.97;;;10.70;99.90;;;;;;5083061;28;20679;-85
2023/05/12 00:43:48;;;;;;;30.60;17.07;;;10.70;99.90;;;;;;5097889;28;20236;-84
2023/05/12 00:46:16;;;;;;;27.47;18.03;;;10.70;99.90;;;;;;5091375;28;20591;-82
2023/05/12 00:48:44;;;;;;;27.43;17.80;;;10.70;99.90;;;;;;5077336;28;20253;-82
2023/05/12 00:51:13;;;;;;;28.23;18.47;;;10.70;99.90;;;;;;5077082;28;20210;-83
2023/05/12 00:53:40;;;;;;;26.17;18.27;;;10.70;99.90;;;;;;5077019;28;20783;-82
2023/05/12 00:56:07;;;;;;;26.03;16.67;;;10.60;99.90;;;;;;5076963;28;20209;-82
2023/05/12 00:58:34;;;;;;;23.77;15.47;;;10.60;99.90;;;;;;5076424;28;20203;-85
2023/05/12 01:01:01;;;;;;;23.07;15.50;;;10.70;99.90;;;;;;5076322;28;20204;-84
2023/05/12 01:03:31;;;;;;;25.37;16.80;;;10.60;99.90;;;;;;5066054;28;20231;-83
2023/05/12 01:06:06;;;;;;;25.53;16.77;;;10.50;99.90;;;;;;5068716;28;20290;-84
2023/05/12 01:08:35;;;;;;;24.23;15.43;;;10.40;99.90;;;;;;5075752;28;20631;-83
2023/05/12 01:11:02;;;;;;;27.23;16.37;;;10.50;99.90;;;;;;5076161;28;20202;-83
2023/05/12 01:13:30;;;;;;;23.47;15.80;;;10.60;99.90;;;;;;5076396;28;20224;-85
2023/05/12 01:16:00;;;;;;;24.10;15.90;;;10.60;99.90;;;;;;5076492;28;20263;-85
2023/05/12 01:18:28;;;;;;;24.03;15.93;;;10.60;99.90;;;;;;5076397;28;20208;-83
2023/05/12 01:20:58;;;;;;;22.33;14.87;;;10.60;99.90;;;;;;5075783;28;20685;-82
2023/05/12 01:23:35;;;;;;;26.10;16.70;;;10.50;99.90;;;;;;5076522;28;20214;-86
2023/05/12 01:26:06;;;;;;;23.57;16.13;;;10.50;99.90;;;;;;5075575;28;20196;-84
2023/05/12 01:28:34;;;;;;;24.13;16.63;;;10.50;99.90;;;;;;5076204;28;20226;-82
2023/05/12 01:31:02;;;;;;;24.83;17.17;;;10.60;99.90;;;;;;5075945;28;20210;-83
2023/05/12 01:33:29;;;;;;;24.93;17.17;;;10.50;99.90;;;;;;5075922;28;20214;-83
2023/05/12 01:35:55;;;;;;;23.67;15.87;;;10.60;99.90;;;;;;5076666;28;20206;-82
2023/05/12 01:38:22;;;;;;;24.03;16.43;;;10.60;99.90;;;;;;5056031;28;20199;-83
2023/05/12 01:40:49;;;;;;;23.13;16.17;;;10.60;99.90;;;;;;5055693;28;20203;-82
2023/05/12 01:43:17;;;;;;;25.17;16.43;;;10.60;99.90;;;;;;5082259;28;20324;-85
2023/05/12 01:45:44;;;;;;;22.87;16.23;;;10.60;99.90;;;;;;5056302;28;20203;-84
2023/05/12 01:48:11;;;;;;;21.83;15.23;;;10.50;99.90;;;;;;5056289;28;20203;-82
2023/05/12 01:50:38;;;;;;;22.17;14.70;;;10.60;99.90;;;;;;5071694;28;20214;-82
2023/05/12 01:53:04;;;;;;;21.70;14.77;;;10.40;99.90;;;;;;5076467;28;20218;-83
2023/05/12 01:55:31;;;;;;;22.67;15.23;;;10.50;99.90;;;;;;5075931;28;20203;-83
2023/05/12 01:57:58;;;;;;;22.53;14.80;;;10.60;99.90;;;;;;5075409;28;20642;-85
2023/05/12 02:00:26;;;;;;;21.40;13.97;;;10.50;99.90;;;;;;5075384;28;20212;-85
2023/05/12 02:02:53;;;;;;;23.03;15.10;;;10.40;99.90;;;;;;5075222;28;20715;-85
2023/05/12 02:05:21;;;;;;;21.77;14.03;;;10.50;99.90;;;;;;5075555;28;20665;-82
2023/05/12 02:07:48;;;;;;;21.07;13.70;;;10.50;99.90;;;;;;5075399;28;20202;-82
2023/05/12 02:10:15;;;;;;;30.93;14.27;;;10.40;99.90;;;;;;5074667;28;20222;-84
2023/05/12 02:12:42;;;;;;;21.60;14.47;;;10.20;99.90;;;;;;5075578;28;20215;-84
2023/05/12 02:15:09;;;;;;;21.00;14.00;;;10.40;99.90;;;;;;5075118;28;20198;-82
2023/05/12 02:17:38;;;;;;;21.93;14.20;;;10.40;99.90;;;;;;5075546;28;20242;-83
2023/05/12 02:20:05;;;;;;;21.27;14.07;;;10.30;99.90;;;;;;5080652;28;20655;-82
2023/05/12 02:22:32;;;;;;;22.33;14.77;;;10.30;99.90;;;;;;5096106;28;20221;-84
2023/05/12 02:24:59;;;;;;;22.27;14.20;;;10.30;99.90;;;;;;5096128;28;20198;-84
2023/05/12 02:27:26;;;;;;;38.43;14.27;;;10.30;99.90;;;;;;5095941;28;20205;-84
2023/05/12 02:29:53;;;;;;;28.50;13.77;;;10.20;99.90;;;;;;5090088;28;20210;-83
2023/05/12 02:32:20;;;;;;;20.50;13.50;;;10.20;99.90;;;;;;5075685;28;20227;-82
2023/05/12 02:34:49;;;;;;;22.43;14.60;;;10.20;99.90;;;;;;5075546;28;20198;-83
2023/05/12 02:37:15;;;;;;;20.33;14.00;;;10.40;99.90;;;;;;5076173;28;20211;-82
2023/05/12 02:39:42;;;;;;;21.23;13.70;;;10.30;99.90;;;;;;5074449;28;20748;-85
2023/05/12 02:42:09;;;;;;;18.47;12.13;;;10.30;99.90;;;;;;5075041;28;20261;-83
2023/05/12 02:44:36;;;;;;;22.77;14.37;;;10.30;99.90;;;;;;5075141;28;20212;-84
2023/05/12 02:47:03;;;;;;;23.67;14.10;;;10.40;99.90;;;;;;5075662;28;20213;-84
2023/05/12 02:49:31;;;;;;;105.73;15.60;;;10.30;99.90;;;;;;5074624;28;20226;-85
2023/05/12 02:51:59;;;;;;;57.90;13.73;;;10.20;99.90;;;;;;5074339;28;20219;-85
2023/05/12 02:54:26;;;;;;;43.83;12.93;;;10.20;99.90;;;;;;5074912;28;20202;-84
2023/05/12 02:56:53;;;;;;;23.40;14.90;;;10.20;99.90;;;;;;5075271;28;20217;-84
2023/05/12 02:59:20;;;;;;;23.07;15.07;;;10.30;99.90;;;;;;5074157;28;20233;-83
2023/05/12 03:01:47;;;;;;;25.60;17.57;;;10.40;99.90;;;;;;5074685;28;20218;-82
2023/05/12 03:04:13;;;;;;;28.20;18.37;;;10.40;99.90;;;;;;5075335;28;20206;-85
2023/05/12 03:06:40;;;;;;;33.90;14.97;;;10.40;99.90;;;;;;5074390;28;20204;-84
2023/05/12 03:09:08;;;;;;;22.67;13.90;;;10.20;99.90;;;;;;5074501;28;20246;-84
2023/05/12 03:11:35;;;;;;;28.83;15.13;;;10.10;99.90;;;;;;5075076;28;20272;-82
2023/05/12 03:14:02;;;;;;;20.97;14.10;;;10.20;99.90;;;;;;5075173;28;20225;-84
2023/05/12 03:16:29;;;;;;;24.27;15.23;;;10.20;99.90;;;;;;5075072;28;20206;-83
2023/05/12 03:18:56;;;;;;;25.73;14.80;;;10.10;99.90;;;;;;5075449;28;20220;-82
2023/05/12 03:21:22;;;;;;;20.47;13.63;;;10.10;99.90;;;;;;5074006;28;20221;-82
2023/05/12 03:23:49;;;;;;;24.00;15.47;;;10.00;99.90;;;;;;5075227;28;20205;-82
2023/05/12 03:26:18;;;;;;;21.63;14.67;;;10.10;99.90;;;;;;5075159;28;20266;-82
2023/05/12 03:28:45;;;;;;;24.87;15.93;;;10.10;99.90;;;;;;5075346;28;20216;-84
2023/05/12 03:31:11;;;;;;;22.40;14.97;;;10.00;99.90;;;;;;5073700;28;20218;-85
2023/05/12 03:33:38;;;;;;;22.70;14.50;;;10.10;99.90;;;;;;5074475;28;20762;-82
2023/05/12 03:36:06;;;;;;;23.43;15.33;;;10.00;99.90;;;;;;5074932;28;20649;-83
2023/05/12 03:38:32;;;;;;;23.53;14.83;;;10.20;99.90;;;;;;5074151;28;20209;-84
2023/05/12 03:41:06;;;;;;;22.70;14.70;;;10.10;99.90;;;;;;5072897;28;20210;-85
2023/05/12 03:43:34;;;;;;;21.67;14.60;;;10.20;99.90;;;;;;5072375;28;20309;-84
2023/05/12 03:46:01;;;;;;;23.23;15.03;;;10.10;99.90;;;;;;5073272;28;20252;-84
2023/05/12 03:48:28;;;;;;;24.93;16.00;;;10.20;99.90;;;;;;5065931;28;20214;-82
2023/05/12 03:50:55;;;;;;;23.53;15.73;;;10.10;99.90;;;;;;5076601;28;20225;-81
2023/05/12 03:53:22;;;;;;;23.27;15.17;;;10.30;99.90;;;;;;5068832;28;20224;-82
2023/05/12 03:55:49;;;;;;;25.93;17.90;;;10.30;99.90;;;;;;5068981;28;20201;-81
2023/05/12 03:58:15;;;;;;;27.10;17.83;;;10.30;99.90;;;;;;5078119;28;20209;-81
2023/05/12 04:00:43;;;;;;;22.80;15.37;;;10.30;99.90;;;;;;5073468;28;20194;-83
2023/05/12 04:03:10;;;;;;;23.30;15.40;;;10.20;99.90;;;;;;5074886;28;20336;-84
2023/05/12 04:05:38;;;;;;;24.37;16.13;;;10.20;99.90;;;;;;5074601;28;20230;-83
2023/05/12 04:08:05;;;;;;;24.77;17.23;;;10.40;99.90;;;;;;5072832;28;20281;-82
2023/05/12 04:10:32;;;;;;;28.63;16.73;;;10.40;99.90;;;;;;5063883;28;20225;-81
2023/05/12 04:12:58;;;;;;;24.87;16.93;;;10.30;99.90;;;;;;5074107;28;20244;-81
2023/05/12 04:15:25;;;;;;;24.13;17.70;;;10.40;99.90;;;;;;5074783;28;20206;-82
2023/05/12 04:17:53;;;;;;;24.57;18.17;;;10.40;99.90;;;;;;5070474;28;20282;-82
2023/05/12 04:20:21;;;;;;;25.13;19.13;;;10.40;99.90;;;;;;5067934;28;20213;-81
2023/05/12 04:22:47;;;;;;;25.23;17.33;;;10.50;99.90;;;;;;5070323;28;20305;-81
2023/05/12 04:25:14;;;;;;;24.50;16.70;;;10.50;99.90;;;;;;5071534;28;20198;-80
2023/05/12 04:27:41;;;;;;;23.00;16.67;;;10.50;99.90;;;;;;5070139;28;20199;-81
2023/05/12 04:30:09;;;;;;;23.63;16.50;;;10.50;99.90;;;;;;5066662;28;20241;-83
2023/05/12 04:32:36;;;;;;;24.30;16.53;;;10.50;99.90;;;;;;5067126;28;20305;-83
2023/05/12 04:35:04;;;;;;;26.67;16.73;;;10.50;99.90;;;;;;5071050;28;20714;-84
2023/05/12 04:37:31;;;;;;;25.87;16.90;;;10.50;99.90;;;;;;5061731;28;20569;-83
2023/05/12 04:39:58;;;;;;;25.80;18.30;;;10.50;99.90;;;;;;5064662;28;20201;-81
2023/05/12 04:42:25;;;;;;;26.73;17.17;;;10.60;99.90;;;;;;5055134;28;20705;-81
2023/05/12 04:44:51;;;;;;;27.97;17.97;;;10.60;99.90;;;;;;5059654;28;20221;-82
2023/05/12 04:47:18;;;;;;;32.30;17.87;;;10.70;99.90;;;;;;5064166;28;20194;-82
2023/05/12 04:49:45;;;;;;;36.97;17.07;;;10.70;99.90;;;;;;5063774;28;20217;-80
2023/05/12 04:52:13;;;;;;;27.70;17.07;;;10.70;99.90;;;;;;5058764;28;20229;-81
2023/05/12 04:54:40;;;;;;;26.17;16.70;;;10.70;99.90;;;;;;5071795;28;20210;-81
2023/05/12 04:57:07;;;;;;;31.17;17.77;;;10.80;99.90;;;;;;5073749;28;20213;-82
2023/05/12 04:59:34;;;;;;;27.33;16.83;;;10.80;99.90;;;;;;5073812;28;20878;-82
2023/05/12 05:02:01;;;;;;;25.43;16.33;;;10.80;99.90;;;;;;5071098;28;20632;-83
2023/05/12 05:04:28;;;;;;;29.27;19.53;;;10.80;99.90;;;;;;5065670;28;20661;-84
2023/05/12 05:06:55;;;;;;;29.17;18.23;;;11.00;99.90;;;;;;5074791;28;20195;-81
2023/05/12 05:09:23;;;;;;;26.97;17.30;;;11.00;99.90;;;;;;5076673;28;20202;-81
2023/05/12 05:11:50;;;;;;;26.83;17.67;;;11.00;99.90;;;;;;5066307;28;20221;-80
2023/05/12 05:14:17;;;;;;;26.63;18.93;;;11.00;99.90;;;;;;5065793;28;20302;-83
2023/05/12 05:16:45;;;;;;;28.17;18.53;;;11.10;99.90;;;;;;5063034;28;20202;-81
2023/05/12 05:19:12;;;;;;;30.77;18.80;;;11.10;99.90;;;;;;5062842;28;20199;-83
2023/05/12 05:21:39;;;;;;;27.00;17.57;;;11.10;99.90;;;;;;5068557;28;20297;-83
2023/05/12 05:24:06;;;;;;;26.53;18.07;;;11.20;99.90;;;;;;5064913;28;20218;-82
2023/05/12 05:26:34;;;;;;;25.43;17.23;;;11.20;99.90;;;;;;5066849;28;20209;-82
2023/05/12 05:29:01;;;;;;;28.60;19.10;;;11.30;99.90;;;;;;5076603;28;20205;-83
2023/05/12 05:31:28;;;;;;;27.77;19.40;;;11.30;99.90;;;;;;5059524;28;20225;-82
2023/05/12 05:33:55;;;;;;;26.50;17.97;;;11.30;99.90;;;;;;5062305;28;20567;-82
2023/05/12 05:36:23;;;;;;;26.57;18.23;;;11.50;99.90;;;;;;5065570;28;20653;-80
2023/05/12 05:38:50;;;;;;;26.20;18.93;;;11.40;99.90;;;;;;5064733;28;20210;-80
2023/05/12 05:41:17;;;;;;;28.23;18.67;;;11.50;99.90;;;;;;5074751;28;20199;-83
2023/05/12 05:43:45;;;;;;;24.63;17.57;;;11.60;99.90;;;;;;5063783;28;20238;-81
2023/05/12 05:46:11;;;;;;;24.50;17.90;;;11.60;99.90;;;;;;5076033;28;20213;-82
2023/05/12 05:48:38;;;;;;;26.30;18.97;;;11.60;99.90;;;;;;5076827;28;20198;-83
2023/05/12 05:51:05;;;;;;;23.90;18.10;;;11.70;99.90;;;;;;5074056;28;20218;-80
2023/05/12 05:53:32;;;;;;;26.77;19.53;;;11.70;99.90;;;;;;5071125;28;20222;-83
2023/05/12 05:56:00;;;;;;;25.20;18.83;;;11.70;99.90;;;;;;5077154;28;20195;-82
2023/05/12 05:58:27;;;;;;;25.27;18.77;;;11.80;99.90;;;;;;5076348;28;20623;-82
2023/05/12 06:00:55;;;;;;;23.13;17.53;;;11.70;99.90;;;;;;5069173;28;20205;-80
2023/05/12 06:03:23;;;;;;;24.33;17.30;;;11.80;99.90;;;;;;5078280;28;20221;-80
2023/05/12 06:05:50;;;;;;;25.13;18.43;;;11.80;99.90;;;;;;5071347;28;20207;-82
2023/05/12 06:08:16;;;;;;;26.60;19.17;;;11.80;99.90;;;;;;5071230;28;20199;-85
2023/05/12 06:10:43;;;;;;;25.27;18.47;;;11.70;99.90;;;;;;5077996;28;20214;-84
2023/05/12 06:13:10;;;;;;;24.23;16.80;;;11.70;99.90;;;;;;5096384;28;20221;-83
2023/05/12 06:15:37;;;;;;;23.93;17.70;;;11.80;99.90;;;;;;5097086;28;20671;-83
2023/05/12 06:18:06;;;;;;;25.73;19.30;;;11.90;99.90;;;;;;5082620;28;20205;-81
2023/05/12 06:20:33;;;;;;;27.30;19.93;;;11.80;99.90;;;;;;5072101;28;20211;-82
2023/05/12 06:23:00;;;;;;;25.43;18.47;;;11.90;99.90;;;;;;5076482;28;20695;-82
2023/05/12 06:25:27;;;;;;;24.83;18.50;;;11.90;99.90;;;;;;5076293;28;20217;-81
2023/05/12 06:27:53;;;;;;;25.70;19.53;;;12.00;99.90;;;;;;5078982;28;20201;-82
2023/05/12 06:30:20;;;;;;;23.50;18.50;;;12.00;99.90;;;;;;5090419;28;20228;-81
2023/05/12 06:32:47;;;;;;;25.73;19.37;;;12.00;99.90;;;;;;5076433;28;20218;-81
2023/05/12 06:35:15;;;;;;;24.90;18.50;;;12.10;99.90;;;;;;5074756;28;20232;-84
2023/05/12 06:37:43;;;;;;;24.53;18.77;;;12.20;99.90;;;;;;5074406;28;20202;-84
2023/05/12 06:40:10;;;;;;;26.90;20.87;;;12.30;99.90;;;;;;5075473;28;20259;-83
2023/05/12 06:42:37;;;;;;;27.40;20.87;;;12.30;99.90;;;;;;5076355;28;20633;-82
2023/05/12 06:45:05;;;;;;;25.47;20.00;;;12.10;99.90;;;;;;5073504;28;20576;-82
2023/05/12 06:47:32;;;;;;;27.40;20.57;;;12.30;99.90;;;;;;5076158;28;20662;-80
2023/05/12 06:49:58;;;;;;;24.87;19.37;;;12.20;99.90;;;;;;5072988;28;20198;-81
2023/05/12 06:52:26;;;;;;;26.93;22.10;;;12.30;99.90;;;;;;5084543;28;20226;-81
2023/05/12 06:54:53;;;;;;;30.03;23.17;;;12.30;99.90;;;;;;5068947;28;20202;-80
2023/05/12 06:57:20;;;;;;;28.63;22.20;;;12.40;99.90;;;;;;5063188;28;20632;-81
2023/05/12 06:59:47;;;;;;;28.03;21.27;;;12.60;99.90;;;;;;5077844;28;20208;-82
2023/05/12 07:02:14;;;;;;;30.40;23.07;;;12.60;99.90;;;;;;5077043;28;20214;-81
2023/05/12 07:04:40;;;;;;;29.57;21.93;;;12.80;99.90;;;;;;5077678;28;20212;-80
2023/05/12 07:07:07;;;;;;;31.87;22.83;;;12.90;99.90;;;;;;5073441;28;20202;-82
2023/05/12 07:09:35;;;;;;;28.63;22.23;;;12.90;99.90;;;;;;5068366;28;20581;-81
2023/05/12 07:12:02;;;;;;;30.17;22.37;;;13.00;99.90;;;;;;5070855;28;20279;-80
2023/05/12 07:14:30;;;;;;;28.77;22.60;;;12.90;99.90;;;;;;5076668;28;20546;-81
2023/05/12 07:16:57;;;;;;;29.23;22.23;;;13.00;99.90;;;;;;5077063;28;20202;-83
2023/05/12 07:19:24;;;;;;;27.00;21.67;;;13.10;99.90;;;;;;5078944;28;20202;-81
2023/05/12 07:21:53;;;;;;;28.27;21.43;;;13.20;99.90;;;;;;5069645;28;20222;-83
2023/05/12 07:24:19;;;;;;;25.40;21.13;;;13.30;99.90;;;;;;5071150;28;20580;-85
2023/05/12 07:26:47;;;;;;;27.33;21.37;;;13.30;99.90;;;;;;5075853;28;20202;-85
2023/05/12 07:29:14;;;;;;;26.63;20.83;;;13.50;99.90;;;;;;5068027;28;20579;-83
2023/05/12 07:31:41;;;;;;;24.70;19.87;;;13.60;99.90;;;;;;5074838;28;20703;-80
2023/05/12 07:34:08;;;;;;;22.97;18.20;;;13.70;99.90;;;;;;5073530;28;20205;-81
2023/05/12 07:36:35;;;;;;;24.10;18.70;;;13.70;99.90;;;;;;5085451;28;20202;-81
2023/05/12 07:39:01;;;;;;;22.53;17.17;;;13.90;99.90;;;;;;5075191;28;20308;-82
2023/05/12 07:41:28;;;;;;;25.30;16.23;;;14.10;99.90;;;;;;5077697;28;20206;-80
2023/05/12 07:43:56;;;;;;;23.23;16.17;;;14.20;99.90;;;;;;5076202;28;20264;-79
2023/05/12 07:46:23;;;;;;;19.67;15.97;;;14.40;99.90;;;;;;5075248;28;20229;-80
2023/05/12 07:48:50;;;;;;;19.40;15.60;;;14.50;99.90;;;;;;5079415;28;20206;-80
2023/05/12 07:51:17;;;;;;;19.50;15.33;;;14.50;99.90;;;;;;5072237;28;20214;-80
2023/05/12 07:53:43;;;;;;;18.30;14.20;;;14.70;99.90;;;;;;5076241;28;20316;-79
2023/05/12 07:56:10;;;;;;;27.00;15.20;;;14.90;99.90;;;;;;5065918;28;20194;-79
2023/05/12 07:58:37;;;;;;;16.70;14.17;;;15.00;99.90;;;;;;5063065;28;20202;-81
2023/05/12 08:01:06;;;;;;;19.47;13.60;;;15.30;99.90;;;;;;5053600;28;20223;-79
2023/05/12 08:03:34;;;;;;;17.03;13.60;;;15.30;99.90;;;;;;5058567;28;20226;-81
2023/05/12 08:06:02;;;;;;;17.15;13.02;;;15.40;99.90;;;;;;5072721;28;20229;-79
2023/05/12 08:08:29;;;;;;;15.60;11.33;;;15.50;99.90;;;;;;5072752;28;20271;-81
2023/05/12 08:10:55;;;;;;;14.95;12.10;;;15.70;99.90;;;;;;5082629;28;20295;-80
2023/05/12 08:13:22;;;;;;;13.98;10.90;;;15.80;99.90;;;;;;5078780;28;20583;-78
2023/05/12 08:15:49;;;;;;;14.37;11.07;;;15.80;99.90;;;;;;5072758;28;20206;-79
2023/05/12 08:18:17;;;;;;;14.40;11.48;;;16.00;99.90;;;;;;5072618;28;20585;-80
2023/05/12 08:20:44;;;;;;;14.52;11.80;;;15.80;99.90;;;;;;5054707;28;20207;-80
2023/05/12 08:23:11;;;;;;;13.77;10.20;;;16.10;99.90;;;;;;5052914;28;20223;-79
2023/05/12 08:25:39;;;;;;;12.68;10.15;;;16.20;99.90;;;;;;5066655;28;20202;-80
2023/05/12 08:28:06;;;;;;;12.68;9.48;;;16.40;99.90;;;;;;5075478;28;20255;-78
2023/05/12 08:30:33;;;;;;;13.68;9.65;;;16.40;99.90;;;;;;5076449;28;20206;-79
2023/05/12 08:33:00;;;;;;;11.05;9.10;;;16.50;99.90;;;;;;5075939;28;20236;-80
2023/05/12 08:35:28;;;;;;;13.52;10.43;;;16.70;99.90;;;;;;5076015;28;20206;-78
2023/05/12 08:37:56;;;;;;;14.73;10.27;;;16.80;99.90;;;;;;5079348;28;20572;-80
2023/05/12 08:40:24;;;;;;;13.55;9.88;;;16.80;99.90;;;;;;5080705;28;20666;-76
2023/05/12 08:42:57;;;;;;;15.50;10.45;;;16.90;99.90;;;;;;5080925;28;20557;-79
2023/05/12 08:45:24;;;;;;;13.35;9.25;;;16.90;99.90;;;;;;5079677;28;20624;-81
2023/05/12 08:47:53;;;;;;;11.75;9.82;;;16.80;99.90;;;;;;5080794;28;20212;-80
2023/05/12 08:50:22;;;;;;;10.13;8.38;;;17.10;99.90;;;;;;5078734;28;20574;-79
2023/05/12 08:52:51;;;;;;;10.77;8.52;;;17.20;99.90;;;;;;5080649;28;20234;-77
2023/05/12 08:55:19;;;;;;;9.60;8.27;;;17.20;99.90;;;;;;5080331;28;20224;-78
2023/05/12 08:57:47;;;;;;;11.57;8.68;;;17.20;99.90;;;;;;5081179;28;20248;-79
2023/05/12 09:00:27;;;;;;;12.73;9.15;;;17.40;99.90;;;;;;5077359;28;20245;-80
2023/05/12 09:02:55;;;;;;;11.02;9.55;;;17.80;99.90;;;;;;5077514;28;20218;-78
2023/05/12 09:05:22;;;;;;;12.55;9.70;;;17.70;99.90;;;;;;5079267;28;20220;-77
2023/05/12 09:07:53;;;;;;;13.25;10.15;;;18.00;99.90;;;;;;5079815;28;20208;-82
2023/05/12 09:10:22;;;;;;;12.07;9.30;;;18.40;99.90;;;;;;5073778;28;20183;-77
2023/05/12 09:12:52;;;;;;;12.23;9.38;;;18.40;99.90;;;;;;5058585;28;20807;-80
2023/05/12 09:15:22;;;;;;;13.57;10.10;;;18.60;99.90;;;;;;5059456;28;20187;-82
2023/05/12 09:17:49;;;;;;;11.85;10.18;;;18.70;99.90;;;;;;5059822;28;20183;-81
2023/05/12 09:20:17;;;;;;;12.05;10.63;;;18.90;99.90;;;;;;5058503;28;20210;-81
2023/05/12 09:22:44;;;;;;;11.85;10.10;;;18.90;99.90;;;;;;5059062;28;20219;-79
2023/05/12 09:25:20;;;;;;;11.80;10.05;;;19.30;99.90;;;;;;5078441;28;20212;-78
2023/05/12 09:27:48;;;;;;;13.55;10.52;;;19.20;99.90;;;;;;5079047;28;20201;-78
2023/05/12 09:30:16;;;;;;;12.80;9.40;;;19.40;99.90;;;;;;5079123;28;20198;-76
2023/05/12 09:32:43;;;;;;;12.13;9.73;;;19.40;99.90;;;;;;5078521;28;20218;-78
2023/05/12 09:35:11;;;;;;;11.27;9.85;;;19.20;99.90;;;;;;5069599;28;20285;-78
2023/05/12 09:37:39;;;;;;;12.35;10.27;;;19.30;99.90;;;;;;5071727;28;20203;-79
2023/05/12 09:40:10;;;;;;;12.00;10.50;;;19.30;99.90;;;;;;5058046;28;20207;-78
2023/05/12 09:42:38;;;;;;;11.90;9.55;;;19.30;99.90;;;;;;5065027;28;20260;-79
2023/05/12 09:45:08;;;;;;;12.93;9.98;;;19.50;99.90;;;;;;5078703;23;20222;-81
2023/05/12 09:47:36;;;;;;;12.98;10.15;;;19.80;99.90;;;;;;5121581;28;20303;-80
2023/05/12 09:50:04;;;;;;;15.77;10.40;;;20.00;99.90;;;;;;5122077;28;20209;-80
2023/05/12 09:52:31;;;;;;;10.98;9.10;;;20.20;99.90;;;;;;5121796;28;20216;-79
2023/05/12 09:55:07;;;;;;;10.38;9.27;;;20.10;99.90;;;;;;5119419;28;20244;-79
2023/05/12 09:57:36;;;;;;;11.45;8.90;;;20.10;99.90;;;;;;5120431;28;20291;-80
2023/05/12 10:00:06;;;;;;;11.90;8.52;;;20.30;99.90;;;;;;5120473;28;20205;-81
2023/05/12 10:02:34;;;;;;;15.20;9.02;;;20.40;99.90;;;;;;5122455;28;20639;-81
2023/05/12 10:05:06;;;;;;;11.88;8.15;;;20.50;99.90;;;;;;5120876;28;20205;-80
2023/05/12 10:07:34;;;;;;;11.00;8.40;;;20.80;99.90;;;;;;5121156;28;20197;-82
2023/05/12 10:10:04;;;;;;;10.85;8.23;;;20.60;99.90;;;;;;5119529;28;20572;-82
2023/05/12 10:12:31;;;;;;;10.93;7.93;;;20.70;99.90;;;;;;5119548;28;20229;-82
2023/05/12 10:14:59;;;;;;;9.77;8.15;;;20.50;99.90;;;;;;5121574;28;20201;-82
2023/05/12 10:17:28;;;;;;;9.93;7.85;;;20.90;99.90;;;;;;5115416;28;20212;-84
2023/05/12 10:19:56;;;;;;;8.95;7.80;;;21.20;99.90;;;;;;5116544;28;20205;-81
2023/05/12 10:22:24;;;;;;;8.13;6.90;;;20.70;99.90;;;;;;5118018;28;20225;-81
2023/05/12 10:24:51;;;;;;;11.80;7.57;;;20.50;99.90;;;;;;5118978;28;20213;-81
2023/05/12 10:27:18;;;;;;;8.52;6.70;;;20.60;99.90;;;;;;5119887;28;20288;-83
2023/05/12 10:29:47;;;;;;;8.23;6.10;;;20.50;99.90;;;;;;5118017;28;20201;-82
2023/05/12 10:32:13;;;;;;;9.27;6.40;;;20.60;99.90;;;;;;5109450;28;20234;-82
2023/05/12 10:34:42;;;;;;;8.85;6.80;;;20.60;99.90;;;;;;5116921;28;20549;-81
2023/05/12 10:37:10;;;;;;;8.32;6.68;;;20.90;99.90;;;;;;5118486;28;20722;-84
2023/05/12 10:39:46;;;;;;;8.23;6.00;;;20.90;99.90;;;;;;5113273;28;20262;-84
2023/05/12 10:42:16;;;;;;;8.18;5.95;;;21.30;99.90;;;;;;5111683;28;20213;-83
2023/05/12 10:44:50;;;;;;;8.18;5.30;;;21.50;99.90;;;;;;5119629;28;20204;-84
2023/05/12 10:47:16;;;;;;;10.88;5.70;;;21.40;99.90;;;;;;5111614;28;20201;-82
2023/05/12 10:49:45;;;;;;;7.53;5.13;;;21.40;99.90;;;;;;5120612;28;20208;-83
2023/05/12 10:52:12;;;;;;;6.50;5.70;;;21.60;99.90;;;;;;5121395;28;20223;-84
2023/05/12 10:54:43;;;;;;;10.00;5.60;;;22.20;99.90;;;;;;5124791;28;20205;-82
2023/05/12 10:57:13;;;;;;;10.05;5.57;;;22.60;99.90;;;;;;5120863;27;20255;-83
2023/05/12 10:59:48;;;;;;;8.38;5.25;;;22.20;99.90;;;;;;5117555;27;20200;-82
2023/05/12 11:02:17;;;;;;;5.90;5.30;;;21.90;99.90;;;;;;5111430;28;20216;-81
2023/05/12 11:04:49;;;;;;;6.53;5.60;;;22.50;99.90;;;;;;5122585;28;20217;-81
2023/05/12 11:07:19;;;;;;;9.60;5.93;;;22.60;99.90;;;;;;5115269;27;20264;-81
2023/05/12 11:09:47;;;;;;;7.22;5.80;;;22.30;99.90;;;;;;5114706;28;20208;-80
2023/05/12 11:12:15;;;;;;;7.25;6.25;;;22.50;99.90;;;;;;5114462;28;20217;-82
2023/05/12 11:14:44;;;;;;;7.00;5.88;;;21.90;99.90;;;;;;5122705;28;20212;-81
2023/05/12 11:17:11;;;;;;;6.55;5.82;;;22.00;99.90;;;;;;5122675;28;20662;-81
2023/05/12 11:19:39;;;;;;;9.10;5.90;;;22.00;99.90;;;;;;5118118;28;20205;-82
2023/05/12 11:22:09;;;;;;;7.28;6.13;;;22.50;99.90;;;;;;5112772;27;20225;-81
2023/05/12 11:24:37;;;;;;;7.60;6.80;;;22.50;99.90;;;;;;5122937;27;20209;-80
2023/05/12 11:27:06;;;;;;;8.77;6.07;;;22.50;99.90;;;;;;5117983;27;20288;-82
2023/05/12 11:29:33;;;;;;;8.27;6.53;;;23.00;99.90;;;;;;5118089;27;20213;-80
2023/05/12 11:32:00;;;;;;;6.75;5.80;;;21.70;99.90;;;;;;5115826;28;20299;-81
2023/05/12 11:34:27;;;;;;;6.70;5.63;;;21.20;99.90;;;;;;5114520;28;20272;-80
2023/05/12 11:36:56;;;;;;;8.13;6.60;;;21.60;99.90;;;;;;5117252;27;20204;-83
2023/05/12 11:39:25;;;;;;;7.07;6.13;;;21.60;99.90;;;;;;5118276;28;20207;-81
2023/05/12 11:41:53;;;;;;;7.68;6.10;;;21.60;99.90;;;;;;5108436;28;20228;-79
2023/05/12 11:44:22;;;;;;;7.10;6.18;;;22.00;99.90;;;;;;5118746;28;20201;-80
2023/05/12 11:46:59;;;;;;;6.45;5.57;;;22.10;99.90;;;;;;5110960;28;20325;-80
2023/05/12 11:49:26;;;;;;;9.02;6.80;;;22.30;99.90;;;;;;5121655;27;20238;-82
2023/05/12 11:51:54;;;;;;;7.50;6.80;;;21.90;1.00;;;;;;5110000;28;20286;-81
2023/05/12 11:54:21;;;;;;;8.32;6.60;;;22.10;99.90;;;;;;5114806;28;20258;-81
2023/05/12 11:56:50;;;;;;;9.13;6.32;;;22.70;64.40;;;;;;5112403;28;20661;-81
2023/05/12 11:59:28;;;;;;;7.38;5.90;;;21.40;99.90;;;;;;5111953;28;20208;-80
2023/05/12 12:01:55;;;;;;;8.05;6.25;;;20.90;1.00;;;;;;5118000;28;20692;-82
2023/05/12 12:04:32;;;;;;;7.82;6.30;;;20.40;1.00;;;;;;5120465;28;20651;-80
2023/05/12 12:07:00;;;;;;;6.53;5.75;;;20.40;1.00;;;;;;5115350;28;20261;-81
2023/05/12 12:09:31;;;;;;;7.47;5.70;;;20.50;99.90;;;;;;5119738;28;20217;-83
2023/05/12 12:12:00;;;;;;;10.20;7.05;;;20.00;1.00;;;;;;5121153;28;20228;-80
2023/05/12 12:14:27;;;;;;;12.13;7.28;;;20.00;99.90;;;;;;5124189;28;20208;-81
2023/05/12 12:16:54;;;;;;;9.05;6.03;;;20.00;1.00;;;;;;5105841;28;20213;-80
2023/05/12 12:19:20;;;;;;;6.72;5.32;;;20.00;1.00;;;;;;5123711;28;20205;-81
2023/05/12 12:21:47;;;;;;;8.10;5.72;;;20.50;1.00;;;;;;5123300;28;20233;-83
2023/05/12 12:24:14;;;;;;;8.50;5.78;;;20.30;1.00;;;;;;5121590;28;20260;-81
2023/05/12 12:26:41;;;;;;;7.05;5.40;;;20.20;1.00;;;;;;5118333;28;20212;-81
2023/05/12 12:29:09;;;;;;;6.70;5.82;;;20.40;99.90;;;;;;5123069;28;20205;-79
2023/05/12 12:31:36;;;;;;;6.75;5.40;;;21.00;1.00;;;;;;5124955;28;20243;-80
2023/05/12 12:34:04;;;;;;;7.72;5.57;;;21.30;1.00;;;;;;5122312;28;20227;-80